»·PEaware :: EAW2174 KSAN-KPSP

EAW2174 :: KSAN-KPSP

FLIGHT INFORMATION

Flight Status: Arrived
Operator: Unknown
More flights by this operator :: More flights under this callsign
Pilot: Ben F. (2808)
Aircraft: DEHAVILLAND DASH 8 400
(DH8D)
More flights by this aircraft type
Origin: KSAN San Diego Intl-Lindbergh
United States
Destination: KPSP Palm Springs Intl
United States
More flights between these airports :: More routes between these airports
Route: +BRDR7 JLI V208 TRM
File this flight plan on PilotEdge
Remarks: EAW= Eagle Airways, call sign "Eagle"
Altitude:
(Current/Filed)
17,000ft
Speed:
(Current/Filed)
322kts
Departed: 01-Jun-19 08:01 AM
Arrived: 01-Jun-19 08:29 AM
Distance/Time
Traveled:
74nm/0:28
Distance/Time
To Go:
Arrived

Flight Plot

Page will automatically refresh every two minutes.


Map Options




Map Legend


Flown Route
Filed Route
Departure Airport
Arrival Airport
Navaid (VOR, NDB)
Fix

Horizontal Profiles

Position Reports

Time Latitude Longitude Heading Altitude Ground
Speed
01-Jun-19 07:39 32.730911 -117.191832 115 22ft 0kts
01-Jun-19 07:39 32.730911 -117.191832 115 22ft 0kts
01-Jun-19 07:40 32.730911 -117.191832 115 22ft 0kts
01-Jun-19 07:41 32.730911 -117.191832 115 22ft 0kts
01-Jun-19 07:42 32.730911 -117.191832 115 22ft 0kts
01-Jun-19 07:43 32.730911 -117.191832 115 22ft 0kts
01-Jun-19 07:44 32.730911 -117.191832 115 22ft 0kts
01-Jun-19 07:45 32.730911 -117.191832 115 22ft 0kts
01-Jun-19 07:46 32.730911 -117.191832 115 22ft 0kts
01-Jun-19 07:47 32.730911 -117.191832 115 22ft 0kts
01-Jun-19 07:48 32.730911 -117.191832 115 22ft 0kts
01-Jun-19 07:49 32.730911 -117.191832 115 22ft 0kts
01-Jun-19 07:50 32.730911 -117.191832 115 22ft 0kts
01-Jun-19 07:51 32.730911 -117.191832 115 22ft 0kts
01-Jun-19 07:52 32.730911 -117.191832 115 22ft 0kts
01-Jun-19 07:53 32.731874 -117.190823 22 22ft 3kts
01-Jun-19 07:54 32.731980 -117.190768 23 22ft 0kts
01-Jun-19 07:55 32.732556 -117.189820 101 22ft 15kts
01-Jun-19 07:56 32.731190 -117.184202 106 22ft 8kts
01-Jun-19 07:57 32.730167 -117.179958 105 22ft 13kts
01-Jun-19 07:58 32.729509 -117.176827 72 22ft 0kts
01-Jun-19 07:59 32.730392 -117.176566 281 22ft 0kts
01-Jun-19 08:00 32.734909 -117.194533 284 293ft 142kts
01-Jun-19 08:01 32.745849 -117.249667 278 2699ft 185kts
01-Jun-19 08:02 32.753632 -117.312108 273 5546ft 191kts
01-Jun-19 08:03 32.712607 -117.334102 141 7947ft 210kts
01-Jun-19 08:04 32.668054 -117.285784 135 10275ft 219kts
01-Jun-19 08:05 32.625759 -117.232539 116 12594ft 227kts
01-Jun-19 08:06 32.616585 -117.155671 95 14516ft 241kts
01-Jun-19 08:07 32.627185 -117.077807 44 16180ft 256kts
01-Jun-19 08:08 32.685575 -117.021774 38 16980ft 292kts
01-Jun-19 08:09 32.753003 -116.957684 38 16996ft 326kts
01-Jun-19 08:10 32.825782 -116.888282 38 16990ft 344kts
01-Jun-19 08:11 32.901441 -116.815950 38 16987ft 353kts
01-Jun-19 08:12 32.978531 -116.742053 38 16985ft 358kts
01-Jun-19 08:13 33.056012 -116.667536 38 16980ft 360kts
01-Jun-19 08:14 33.133978 -116.592290 39 16971ft 361kts
01-Jun-19 08:15 33.214642 -116.520472 34 16958ft 362kts
01-Jun-19 08:16 33.294646 -116.452376 37 16126ft 337kts
01-Jun-19 08:17 33.366845 -116.389223 37 14729ft 311kts
01-Jun-19 08:18 33.434060 -116.330508 37 13516ft 284kts
01-Jun-19 08:19 33.494873 -116.277242 37 12578ft 266kts
01-Jun-19 08:20 33.555760 -116.224127 32 11135ft 271kts
01-Jun-19 08:21 33.622580 -116.208545 333 9356ft 253kts
01-Jun-19 08:22 33.671491 -116.259283 290 7846ft 230kts
01-Jun-19 08:23 33.691331 -116.328532 290 6333ft 202kts
01-Jun-19 08:24 33.713991 -116.386268 304 4421ft 184kts
01-Jun-19 08:25 33.748846 -116.433491 318 2382ft 175kts
01-Jun-19 08:26 33.786000 -116.468308 323 1381ft 157kts
01-Jun-19 08:27 33.818142 -116.497393 322 574ft 133kts
01-Jun-19 08:28 33.833252 -116.511286 272 484ft 15kts
01-Jun-19 08:29 33.830249 -116.510338 143 484ft 14kts
01-Jun-19 08:30 33.827388 -116.507693 143 484ft 14kts
01-Jun-19 08:31 33.823723 -116.504428 151 484ft 11kts
01-Jun-19 08:32 33.821422 -116.506368 265 484ft 5kts
01-Jun-19 08:33 33.821410 -116.506633 267 484ft 0kts
01-Jun-19 08:34 33.821410 -116.506633 267 484ft 0kts
01-Jun-19 08:35 33.821410 -116.506633 267 484ft 0kts

Navigation Log

Ident Type
Flight plan parsing failed, navigation log unavailable